Detall de PIREP

Printer-friendly versionPDF version

[2017/05/25 09:04:00]
Flight IATA:CT2104
Pilot Number:041
Company ICAO:CAT
Aircraft Type:F50/A
PAX:23
Aircraft Registration:PAOB
Departing Airport: LEVC
Destination Airport: LEBB
Alternate Airport:LEMD
Online: VATSIM
Route:CENTA A33 CJN R10 PPN G23 CEGAM
Flight Level:FL130
No Slew and time accel
No pause
Crash detect
Detect pilot in Cockpit between each 30 and 45 minutes
09:04 Zero fuel Weight: 35103 Lbs, Fuel Weight: 9056 Lbs
09:04 VATSIM:LEVC 250730Z 00000KT CAVOK 23/10 Q1017 NOSIG
09:04 VATSIM:LEBB 250730Z 00000KT CAVOK 25/16 Q1014 NOSIG
09:05 VOICE CATALONIAN
09:05 Parking Brakes off
09:09 Take-off
09:09 Take off Weight: 44084 Lbs
09:09 Wind: 073º @ 009 Knots Heading: 298º
09:09 POS N39º 29´ 26´´ W000º 29´ 08´´
09:09 Gear Up: 125 Knots
09:09 Flaps:2 at 126 Knots
09:10 Flaps:1 at 144 Knots
09:10 Flaps:0 at 152 Knots
09:22 TOC
09:22 Fuel Weight: 8522 Lb
09:24 Wind:285º@011 Knots Heading: 298º Ground Speed: 243 Knots Altitude 12995 ft
09:39 Wind:274º@014 Knots Heading: 310º Ground Speed: 256 Knots Altitude 12874 ft
09:39 TOD
09:39 Fuel Weight: 7959 Lb
08:40 UTC Jump: added 1 Hour to Log
09:42 UTC Jump: removed 1 Hour from Log
09:54 Wind:270º@032 Knots Heading: 019º Ground Speed: 264 Knots Altitude 11984 ft
10:09 Wind:263º@037 Knots Heading: 019º Ground Speed: 273 Knots Altitude 12004 ft
10:24 Wind:284º@006 Knots Heading: 300º Ground Speed: 201 Knots Altitude 3484 ft
10:25 Flaps:1 at 166 Knots
10:25 Flaps:2 at 148 Knots
10:26 Gear Down: 129 Knots
10:27 Flaps:3 at 118 Knots
10:28 Flaps:5 at 116 Knots
10:28 Flaps:6 at 107 Knots
10:30 TouchDown:Rate -192 ft/min Speed: 96 Knots
10:31 VATSIM:LEBB 250900Z 12004KT 080V190 CAVOK 30/16 Q1013 NOSIG
10:31 Land
10:31 Wind:003º@005 Knots
10:31 Heading: 297º
10:31 Flight Duration: 01:22
10:31 Landing Weight: 41544 Lbs
10:31 POS N43º 17´ 56´´ W002º 54´ 18´´
10:33 Parking brakes on
10:33 Block to Block Duration: 01:28
10:33 Final Fuel: 6417 Lbls
10:33 Spent Fuel: 2638 Lbls
10:33 Flight Length: 309 NM
10:33 TOD Land Length: 199 NM

Exportar CSV

Powered by Drupal - Modified by Danger4k